Time;durP1;ratioP1;P1;durP2;ratioP2;P2;SDS_P1;SDS_P2;PMS_P1;PMS_P2;Temp;Humidity;BMP_temperature;BMP_pressure;BME280_temperature;BME280_humidity;BME280_pressure;Samples;Min_cycle;Max_cycle;Signal;HPM_P1;HPM_P2
2023/08/06 00:02:13;;;;;;;114.83;3.57;;;20.00;53.20;;;;;;5030599;28;20774;-81
2023/08/06 00:04:39;;;;;;;114.80;3.50;;;20.20;51.60;;;;;;5030907;28;20564;-81
2023/08/06 00:07:04;;;;;;;115.37;3.83;;;20.10;51.90;;;;;;5034230;28;20258;-81
2023/08/06 00:09:30;;;;;;;115.20;3.80;;;20.00;53.00;;;;;;5034560;28;20194;-81
2023/08/06 00:11:55;;;;;;;115.17;3.90;;;19.80;52.70;;;;;;5034369;28;20170;-80
2023/08/06 00:14:21;;;;;;;114.73;3.53;;;19.80;53.20;;;;;;5034721;28;20227;-81
2023/08/06 00:16:47;;;;;;;114.90;3.60;;;19.70;53.60;;;;;;5034405;28;20714;-81
2023/08/06 00:19:12;;;;;;;115.13;3.77;;;19.70;53.10;;;;;;5034117;28;20216;-80
2023/08/06 00:21:38;;;;;;;115.27;3.87;;;19.70;52.80;;;;;;5034350;28;20209;-81
2023/08/06 00:24:04;;;;;;;114.83;3.53;;;19.80;52.90;;;;;;5034510;28;20191;-81
2023/08/06 00:26:30;;;;;;;115.17;3.73;;;19.50;53.80;;;;;;5034036;28;20600;-81
2023/08/06 00:28:55;;;;;;;115.00;3.53;;;19.50;53.50;;;;;;5034466;28;20197;-81
2023/08/06 00:31:21;;;;;;;115.07;3.60;;;19.50;53.20;;;;;;5034616;28;20176;-81
2023/08/06 00:33:46;;;;;;;115.00;3.60;;;19.80;53.90;;;;;;5033535;28;20261;-81
2023/08/06 00:36:12;;;;;;;115.10;3.63;;;20.00;51.50;;;;;;5032364;28;20169;-81
2023/08/06 00:38:37;;;;;;;115.40;3.90;;;19.70;51.80;;;;;;5033046;28;20192;-81
2023/08/06 00:41:03;;;;;;;114.90;3.43;;;19.70;51.90;;;;;;5034037;28;20520;-80
2023/08/06 00:43:29;;;;;;;116.27;4.00;;;19.70;51.50;;;;;;5033773;28;20216;-81
2023/08/06 00:45:55;;;;;;;115.07;3.40;;;19.60;51.30;;;;;;5033860;28;20193;-81
2023/08/06 00:48:21;;;;;;;115.20;3.80;;;19.50;51.80;;;;;;5033870;28;20197;-81
2023/08/06 00:50:47;;;;;;;115.30;3.80;;;19.90;51.30;;;;;;5033781;28;20407;-81
2023/08/06 00:53:13;;;;;;;115.20;3.77;;;19.30;51.90;;;;;;5033892;28;20176;-81
2023/08/06 00:55:38;;;;;;;115.67;3.83;;;19.40;52.10;;;;;;5033544;28;20497;-80
2023/08/06 00:58:05;;;;;;;115.67;3.90;;;19.10;51.50;;;;;;5030808;28;20200;-80
2023/08/06 01:00:30;;;;;;;115.93;4.20;;;19.10;52.20;;;;;;5033354;28;20184;-81
2023/08/06 01:02:56;;;;;;;115.67;3.90;;;19.10;51.60;;;;;;5033298;28;20974;-80
2023/08/06 01:05:23;;;;;;;115.50;3.97;;;19.10;52.10;;;;;;5033137;28;20176;-80
2023/08/06 01:08:19;;;;;;;115.27;3.60;;;19.20;51.90;;;;;;5033720;28;20411;-81
2023/08/06 01:11:12;;;;;;;114.87;3.20;;;19.00;51.50;;;;;;5033581;28;20418;-81
2023/08/06 01:13:49;;;;;;;115.47;3.73;;;19.00;50.50;;;;;;5033533;28;20403;-80
2023/08/06 01:16:20;;;;;;;114.97;3.30;;;19.00;49.70;;;;;;5033095;28;20450;-80
2023/08/06 01:18:49;;;;;;;115.67;4.03;;;19.20;51.60;;;;;;5032730;28;20451;-81
2023/08/06 01:21:16;;;;;;;115.07;3.30;;;18.90;50.50;;;;;;5033267;28;20419;-80
2023/08/06 01:23:42;;;;;;;115.50;3.83;;;18.90;50.50;;;;;;5033301;28;20426;-81
2023/08/06 01:26:30;;;;;;;115.87;4.00;;;19.30;50.70;;;;;;5032987;28;20790;-81
2023/08/06 01:29:27;;;;;;;115.20;3.60;;;18.80;49.70;;;;;;5025252;28;20456;-81
2023/08/06 01:31:55;;;;;;;115.37;3.70;;;18.90;49.80;;;;;;5033668;28;20450;-81
2023/08/06 01:34:23;;;;;;;115.53;3.83;;;18.70;50.60;;;;;;5032865;28;20415;-80
2023/08/06 01:36:50;;;;;;;115.13;3.37;;;18.70;51.50;;;;;;5033179;28;20469;-80
2023/08/06 01:39:15;;;;;;;115.67;3.90;;;18.70;50.40;;;;;;5035040;28;20478;-80
2023/08/06 01:41:41;;;;;;;115.50;3.80;;;18.80;51.00;;;;;;5043751;28;20465;-80
2023/08/06 01:44:06;;;;;;;115.37;3.67;;;18.70;50.80;;;;;;5045291;28;20177;-80
2023/08/06 01:46:32;;;;;;;115.37;3.63;;;19.00;48.30;;;;;;5044744;28;20176;-80
2023/08/06 01:48:57;;;;;;;115.10;3.30;;;18.60;49.90;;;;;;5046045;28;20711;-80
2023/08/06 01:51:23;;;;;;;115.00;3.10;;;18.90;50.80;;;;;;5045991;28;20177;-80
2023/08/06 01:53:48;;;;;;;115.13;3.30;;;18.60;51.10;;;;;;5044918;28;20180;-80
2023/08/06 01:56:14;;;;;;;115.20;3.40;;;18.40;50.70;;;;;;5043971;28;20181;-80
2023/08/06 01:58:39;;;;;;;115.30;3.60;;;18.40;51.20;;;;;;5037225;28;20201;-80
2023/08/06 02:01:05;;;;;;;115.33;3.50;;;18.60;51.00;;;;;;5037382;28;20173;-80
2023/08/06 02:03:31;;;;;;;114.90;3.30;;;18.40;51.30;;;;;;5036888;28;20227;-80
2023/08/06 02:05:56;;;;;;;116.07;4.03;;;18.60;50.80;;;;;;5037006;28;20176;-80
2023/08/06 02:08:22;;;;;;;116.87;4.03;;;18.40;50.30;;;;;;5037534;28;20196;-80
2023/08/06 02:10:48;;;;;;;115.70;3.77;;;18.40;50.40;;;;;;5038343;28;20740;-80
2023/08/06 02:13:13;;;;;;;115.70;3.97;;;18.40;50.40;;;;;;5040937;28;20543;-80
2023/08/06 02:15:43;;;;;;;115.10;3.43;;;18.60;51.50;;;;;;5036989;28;20176;-80
2023/08/06 02:18:09;;;;;;;115.00;3.43;;;18.20;50.00;;;;;;5036660;28;20169;-80
2023/08/06 02:20:34;;;;;;;114.70;3.00;;;18.30;50.80;;;;;;5037035;28;20426;-80
2023/08/06 02:23:00;;;;;;;115.30;3.60;;;18.20;50.10;;;;;;5036687;28;20681;-80
2023/08/06 02:25:25;;;;;;;115.00;3.40;;;18.10;50.20;;;;;;5036416;28;20179;-80
2023/08/06 02:27:51;;;;;;;115.17;3.20;;;18.20;51.80;;;;;;5036613;28;20227;-80
2023/08/06 02:30:16;;;;;;;115.23;3.43;;;18.10;50.80;;;;;;5037096;28;20208;-80
2023/08/06 02:32:42;;;;;;;115.17;3.30;;;18.10;50.40;;;;;;5036715;28;20231;-80
2023/08/06 02:35:08;;;;;;;115.00;3.27;;;18.40;49.60;;;;;;5036295;28;20189;-80
2023/08/06 02:37:34;;;;;;;115.10;3.57;;;18.60;48.80;;;;;;5036750;28;20248;-80
2023/08/06 02:40:00;;;;;;;115.20;3.30;;;18.20;49.80;;;;;;5036252;28;20200;-80
2023/08/06 02:42:26;;;;;;;115.37;3.47;;;18.20;50.30;;;;;;5036885;28;20950;-80
2023/08/06 02:44:54;;;;;;;115.40;3.50;;;18.20;50.60;;;;;;5036074;28;20645;-80
2023/08/06 02:47:20;;;;;;;115.17;3.43;;;18.40;50.80;;;;;;5036646;28;20478;-80
2023/08/06 02:49:46;;;;;;;115.43;3.60;;;17.90;51.50;;;;;;5035641;28;20433;-80
2023/08/06 02:52:12;;;;;;;115.30;3.47;;;18.00;51.30;;;;;;5036480;28;20415;-80
2023/08/06 02:54:37;;;;;;;115.23;3.70;;;18.20;51.50;;;;;;5035837;28;20668;-80
2023/08/06 02:57:03;;;;;;;115.83;3.83;;;18.20;50.40;;;;;;5039981;28;20183;-80
2023/08/06 02:59:29;;;;;;;115.47;3.70;;;18.20;50.30;;;;;;5033845;28;20736;-80
2023/08/06 03:01:54;;;;;;;115.97;4.20;;;18.20;51.20;;;;;;5033153;28;20199;-81
2023/08/06 03:04:20;;;;;;;115.07;3.47;;;18.20;51.70;;;;;;5032803;28;20653;-80
2023/08/06 03:06:45;;;;;;;130.63;3.67;;;18.20;51.80;;;;;;5033624;28;20185;-81
2023/08/06 03:09:11;;;;;;;115.80;3.97;;;18.20;51.60;;;;;;5034818;28;20687;-81
2023/08/06 03:11:36;;;;;;;115.40;3.60;;;18.30;52.30;;;;;;5034161;28;20715;-81
2023/08/06 03:14:02;;;;;;;115.00;3.20;;;18.60;51.00;;;;;;5034430;28;20655;-81
2023/08/06 03:16:27;;;;;;;115.17;3.73;;;18.50;51.30;;;;;;5033794;28;20191;-81
2023/08/06 03:18:53;;;;;;;115.47;3.90;;;18.40;51.00;;;;;;5032712;28;20259;-81
2023/08/06 03:21:18;;;;;;;114.67;3.30;;;18.40;52.10;;;;;;5034088;28;20172;-81
2023/08/06 03:23:47;;;;;;;114.90;3.30;;;18.70;51.60;;;;;;5033083;28;20176;-81
2023/08/06 03:26:13;;;;;;;114.87;3.30;;;18.80;47.20;;;;;;5033939;28;20160;-80
2023/08/06 03:28:38;;;;;;;115.07;3.47;;;18.90;50.30;;;;;;5034104;28;20530;-81
2023/08/06 03:31:04;;;;;;;114.80;3.20;;;19.10;50.00;;;;;;5034133;28;20488;-81
2023/08/06 03:33:30;;;;;;;115.40;3.70;;;18.70;51.10;;;;;;5032037;28;20181;-81
2023/08/06 03:35:56;;;;;;;114.47;3.10;;;20.80;52.40;;;;;;5032793;28;20188;-81
2023/08/06 03:38:22;;;;;;;115.20;3.73;;;18.80;50.60;;;;;;5034186;28;20435;-80
2023/08/06 03:40:48;;;;;;;115.17;3.60;;;19.00;47.10;;;;;;5037467;28;20681;-80
2023/08/06 03:43:14;;;;;;;115.10;3.47;;;18.90;48.00;;;;;;5036746;28;20903;-80
2023/08/06 03:45:41;;;;;;;115.27;3.70;;;19.00;47.90;;;;;;5037280;28;20454;-81
2023/08/06 03:48:07;;;;;;;115.50;4.03;;;18.60;46.00;;;;;;5043608;28;20435;-81
2023/08/06 03:50:32;;;;;;;115.20;3.53;;;18.60;46.60;;;;;;5038508;28;20450;-81
2023/08/06 03:52:58;;;;;;;115.17;3.63;;;17.80;48.30;;;;;;5031238;28;20418;-81
2023/08/06 03:55:23;;;;;;;115.10;3.50;;;18.10;49.40;;;;;;5039393;28;20187;-80
2023/08/06 03:57:49;;;;;;;115.27;3.50;;;18.30;47.60;;;;;;5035981;28;20186;-81
2023/08/06 04:00:15;;;;;;;115.17;3.73;;;18.60;48.40;;;;;;5039409;28;20205;-80
2023/08/06 04:02:40;;;;;;;114.90;3.60;;;18.50;46.50;;;;;;5039140;28;20241;-81
2023/08/06 04:05:06;;;;;;;115.13;3.73;;;18.30;49.50;;;;;;5030280;28;20189;-81
2023/08/06 04:07:32;;;;;;;114.87;3.37;;;18.10;54.00;;;;;;5033239;28;20553;-81
2023/08/06 04:09:59;;;;;;;114.93;3.63;;;18.20;52.60;;;;;;5039444;28;20458;-81
2023/08/06 04:12:25;;;;;;;114.80;3.43;;;17.80;54.20;;;;;;5039469;28;20516;-80
2023/08/06 04:14:52;;;;;;;115.10;3.63;;;17.10;63.60;;;;;;5038930;28;20407;-81
2023/08/06 04:17:21;;;;;;;115.40;4.07;;;17.90;60.10;;;;;;5040220;28;20263;-81
2023/08/06 04:19:48;;;;;;;115.07;3.80;;;17.90;60.90;;;;;;5039458;28;20445;-81
2023/08/06 04:22:14;;;;;;;115.43;3.80;;;17.90;59.40;;;;;;5039529;28;20459;-80
2023/08/06 04:24:40;;;;;;;115.17;3.83;;;17.60;61.00;;;;;;5037538;28;20931;-80
2023/08/06 04:27:05;;;;;;;115.20;3.83;;;18.00;59.30;;;;;;5039628;28;20175;-81
2023/08/06 04:29:31;;;;;;;114.77;3.50;;;18.20;58.10;;;;;;5038848;28;20702;-81
2023/08/06 04:31:57;;;;;;;114.80;3.60;;;18.30;57.90;;;;;;5039136;28;20173;-80
2023/08/06 04:34:22;;;;;;;115.00;3.70;;;18.30;58.70;;;;;;5038858;28;20513;-80
2023/08/06 04:36:48;;;;;;;115.07;3.87;;;18.30;59.60;;;;;;5038559;28;20213;-81
2023/08/06 04:39:14;;;;;;;114.80;3.50;;;18.30;59.40;;;;;;5038653;28;20219;-81
2023/08/06 04:41:40;;;;;;;114.70;3.37;;;18.50;57.50;;;;;;5036013;28;20537;-80
2023/08/06 04:44:05;;;;;;;114.90;3.40;;;18.10;54.60;;;;;;5031653;28;20188;-80
2023/08/06 04:46:31;;;;;;;114.83;3.50;;;17.60;58.70;;;;;;5038489;28;20198;-81
2023/08/06 04:48:56;;;;;;;114.60;3.43;;;17.60;60.80;;;;;;5037098;28;20193;-80
2023/08/06 04:51:22;;;;;;;115.17;3.77;;;17.90;55.90;;;;;;5038212;28;20200;-81
2023/08/06 04:53:47;;;;;;;114.87;3.50;;;17.80;55.60;;;;;;5038563;28;20191;-80
2023/08/06 04:56:13;;;;;;;114.60;3.23;;;17.70;52.60;;;;;;5038467;28;20192;-80
2023/08/06 04:58:38;;;;;;;115.17;3.97;;;17.30;57.60;;;;;;5038381;28;20197;-81
2023/08/06 05:01:04;;;;;;;114.77;3.30;;;17.70;55.70;;;;;;5037407;28;20172;-81
2023/08/06 05:03:30;;;;;;;115.37;4.10;;;17.40;54.90;;;;;;5038647;28;20196;-81
2023/08/06 05:05:55;;;;;;;115.20;3.50;;;17.50;54.10;;;;;;5038311;28;20176;-80
2023/08/06 05:08:21;;;;;;;114.67;3.20;;;17.00;56.30;;;;;;5038258;28;20655;-80
2023/08/06 05:10:46;;;;;;;114.97;3.53;;;17.00;58.40;;;;;;5038040;28;20622;-80
2023/08/06 05:13:12;;;;;;;116.13;4.27;;;16.90;60.70;;;;;;5037114;28;20185;-80
2023/08/06 05:15:39;;;;;;;115.43;3.80;;;17.50;60.20;;;;;;5034797;28;20183;-82
2023/08/06 05:18:05;;;;;;;114.97;3.70;;;17.30;59.50;;;;;;5037558;28;20184;-81
2023/08/06 05:20:30;;;;;;;114.93;3.47;;;17.50;58.50;;;;;;5037606;28;20406;-81
2023/08/06 05:22:56;;;;;;;115.17;3.90;;;18.10;52.90;;;;;;5030198;28;20222;-81
2023/08/06 05:25:22;;;;;;;114.57;3.30;;;18.20;53.20;;;;;;5022016;28;20250;-81
2023/08/06 05:27:47;;;;;;;114.67;3.30;;;18.40;52.80;;;;;;5032531;28;20192;-81
2023/08/06 05:30:13;;;;;;;114.30;3.20;;;18.20;50.90;;;;;;5040063;28;20200;-82
2023/08/06 05:32:38;;;;;;;114.87;3.50;;;18.40;48.50;;;;;;5038068;28;20231;-81
2023/08/06 05:35:04;;;;;;;115.17;3.70;;;18.50;47.20;;;;;;5037106;28;20597;-80
2023/08/06 05:37:30;;;;;;;114.60;3.50;;;18.40;48.10;;;;;;5037452;28;20184;-80
2023/08/06 05:39:55;;;;;;;114.80;3.50;;;18.20;50.20;;;;;;5037383;28;20439;-81
2023/08/06 05:42:21;;;;;;;114.40;3.23;;;18.30;53.30;;;;;;5032339;28;20597;-81
2023/08/06 05:44:46;;;;;;;115.13;4.03;;;18.00;54.20;;;;;;5032290;28;20207;-81
2023/08/06 05:47:12;;;;;;;114.50;3.33;;;18.30;52.30;;;;;;5035960;28;20188;-81
2023/08/06 05:49:38;;;;;;;114.77;3.57;;;18.10;51.00;;;;;;5031922;28;20196;-81
2023/08/06 05:52:06;;;;;;;115.10;3.83;;;17.20;55.30;;;;;;5025315;28;20207;-81
2023/08/06 05:54:31;;;;;;;115.67;4.27;;;17.70;51.00;;;;;;5037186;28;20190;-81
2023/08/06 05:56:57;;;;;;;115.77;4.37;;;17.50;47.80;;;;;;5037005;28;20778;-81
2023/08/06 05:59:23;;;;;;;115.27;3.90;;;17.60;51.10;;;;;;5029461;28;20212;-81
2023/08/06 06:01:48;;;;;;;114.87;3.73;;;18.30;48.90;;;;;;5025449;28;20225;-81
2023/08/06 06:04:14;;;;;;;114.80;3.67;;;18.10;49.00;;;;;;5026141;28;20191;-81
2023/08/06 06:06:41;;;;;;;114.27;3.20;;;18.90;46.90;;;;;;5036191;28;20253;-81
2023/08/06 06:09:07;;;;;;;114.63;3.63;;;18.80;44.30;;;;;;5034865;28;20204;-81
2023/08/06 06:11:32;;;;;;;114.67;3.60;;;18.40;47.00;;;;;;5030350;28;20489;-80
2023/08/06 06:13:58;;;;;;;114.87;3.80;;;17.60;51.90;;;;;;5036042;28;20256;-81
2023/08/06 06:16:23;;;;;;;114.70;3.60;;;18.10;53.50;;;;;;5038060;28;20196;-81
2023/08/06 06:18:49;;;;;;;114.60;3.63;;;18.00;50.70;;;;;;5040226;28;20243;-81
2023/08/06 06:21:15;;;;;;;114.67;3.70;;;18.20;50.60;;;;;;5039170;28;20287;-81
2023/08/06 06:23:40;;;;;;;114.60;3.53;;;18.40;50.90;;;;;;5031131;28;20265;-81
2023/08/06 06:26:06;;;;;;;114.40;3.50;;;17.80;52.50;;;;;;5027075;28;20191;-81
2023/08/06 06:28:31;;;;;;;114.67;3.73;;;18.00;50.20;;;;;;5030287;28;20212;-81
2023/08/06 06:31:01;;;;;;;114.03;3.37;;;17.30;53.90;;;;;;5030789;28;20190;-81
2023/08/06 06:33:27;;;;;;;114.50;3.60;;;18.20;52.50;;;;;;5030657;28;20677;-81
2023/08/06 06:35:53;;;;;;;114.43;3.47;;;18.60;51.80;;;;;;5029815;28;20438;-81
2023/08/06 06:38:18;;;;;;;114.30;3.67;;;17.70;52.00;;;;;;5033631;28;20696;-81
2023/08/06 06:40:44;;;;;;;114.50;3.70;;;17.70;52.60;;;;;;5036012;28;20242;-81
2023/08/06 06:43:09;;;;;;;114.07;3.30;;;17.50;51.70;;;;;;5031397;28;20219;-81
2023/08/06 06:45:35;;;;;;;114.17;3.47;;;17.70;52.50;;;;;;5024931;28;20185;-82
2023/08/06 06:48:00;;;;;;;113.97;3.33;;;18.40;48.00;;;;;;5026214;28;20182;-79
2023/08/06 06:50:26;;;;;;;114.63;4.10;;;18.60;48.60;;;;;;5033339;28;20207;-79
2023/08/06 06:52:51;;;;;;;114.20;3.53;;;18.10;48.30;;;;;;5033919;28;20204;-80
2023/08/06 06:55:17;;;;;;;114.27;3.63;;;17.80;51.10;;;;;;5036071;28;20177;-79
2023/08/06 06:57:43;;;;;;;113.93;3.60;;;18.20;49.00;;;;;;5035105;28;20211;-80
2023/08/06 07:00:09;;;;;;;114.17;3.70;;;18.20;49.30;;;;;;5037189;28;20679;-80
2023/08/06 07:02:34;;;;;;;113.80;3.40;;;18.60;48.40;;;;;;5032755;28;20215;-80
2023/08/06 07:05:00;;;;;;;114.07;3.70;;;18.00;50.40;;;;;;5033640;28;20462;-80
2023/08/06 07:07:25;;;;;;;113.80;3.60;;;18.10;49.40;;;;;;5029938;28;20197;-80
2023/08/06 07:09:51;;;;;;;113.80;3.40;;;17.80;53.10;;;;;;5027861;28;20204;-80
2023/08/06 07:12:16;;;;;;;114.00;3.80;;;18.30;49.40;;;;;;5033982;28;20526;-80
2023/08/06 07:14:42;;;;;;;114.20;3.87;;;18.40;50.00;;;;;;5035766;28;20188;-80
2023/08/06 07:17:07;;;;;;;113.67;3.47;;;19.20;47.40;;;;;;5038229;28;20189;-80
2023/08/06 07:19:33;;;;;;;113.57;3.57;;;18.90;47.60;;;;;;5034872;28;20228;-80
2023/08/06 07:21:58;;;;;;;113.90;3.60;;;19.20;50.40;;;;;;5036284;28;20201;-80
2023/08/06 07:24:24;;;;;;;113.67;3.27;;;17.90;55.00;;;;;;5029801;28;20186;-80
2023/08/06 07:26:50;;;;;;;114.20;3.97;;;17.80;54.00;;;;;;5034838;28;20185;-79
2023/08/06 07:29:19;;;;;;;113.87;3.77;;;17.10;60.10;;;;;;5035748;28;20274;-81
2023/08/06 07:31:45;;;;;;;113.77;3.80;;;17.50;61.40;;;;;;5032957;28;20234;-82
2023/08/06 07:34:11;;;;;;;113.27;3.43;;;17.40;58.20;;;;;;5033642;28;20441;-82
2023/08/06 07:36:37;;;;;;;113.40;3.20;;;17.50;56.30;;;;;;5032669;28;20435;-82
2023/08/06 07:39:06;;;;;;;113.97;3.80;;;17.40;59.00;;;;;;5034333;28;20215;-82
2023/08/06 07:41:31;;;;;;;113.87;3.43;;;17.80;56.10;;;;;;5034553;28;20524;-79
2023/08/06 07:43:57;;;;;;;113.50;3.20;;;18.30;53.40;;;;;;5032525;28;20473;-80
2023/08/06 07:46:22;;;;;;;113.83;3.57;;;18.20;51.30;;;;;;5036763;28;20565;-79
2023/08/06 07:48:48;;;;;;;113.77;3.43;;;18.30;51.00;;;;;;5028959;28;20226;-79
2023/08/06 07:51:14;;;;;;;113.90;3.50;;;18.10;51.00;;;;;;5033459;28;20275;-79
2023/08/06 07:53:40;;;;;;;114.00;3.70;;;18.30;50.40;;;;;;5030358;28;20185;-79
2023/08/06 07:56:05;;;;;;;113.50;3.17;;;18.30;49.50;;;;;;5034050;28;20193;-79
2023/08/06 07:58:31;;;;;;;113.87;3.63;;;18.40;52.70;;;;;;5031035;28;20987;-79
2023/08/06 08:00:57;;;;;;;113.97;3.60;;;17.70;52.00;;;;;;5028174;28;20180;-80
2023/08/06 08:03:22;;;;;;;113.90;3.50;;;17.80;54.90;;;;;;5036216;28;20213;-79
2023/08/06 08:05:48;;;;;;;113.37;3.30;;;17.30;55.40;;;;;;5033642;28;20179;-80
2023/08/06 08:08:14;;;;;;;114.13;3.67;;;17.90;53.20;;;;;;5038756;28;20214;-80
2023/08/06 08:10:39;;;;;;;113.57;3.30;;;18.00;52.70;;;;;;5039274;28;20186;-80
2023/08/06 08:13:05;;;;;;;113.60;3.10;;;18.50;50.70;;;;;;5037444;28;20200;-79
2023/08/06 08:15:32;;;;;;;113.47;3.17;;;17.80;53.30;;;;;;5037642;28;20196;-80
2023/08/06 08:17:58;;;;;;;113.67;3.20;;;17.30;55.80;;;;;;5037903;28;20506;-80
2023/08/06 08:20:24;;;;;;;113.60;3.17;;;17.60;55.60;;;;;;5037425;28;20533;-80
2023/08/06 08:22:50;;;;;;;113.57;3.37;;;17.50;58.30;;;;;;5037239;28;20458;-79
2023/08/06 08:25:16;;;;;;;113.50;3.30;;;17.80;52.60;;;;;;5032226;28;20186;-79
2023/08/06 08:27:42;;;;;;;113.00;2.90;;;17.80;57.10;;;;;;5034663;28;20239;-79
2023/08/06 08:30:08;;;;;;;113.57;3.20;;;17.50;58.20;;;;;;5036302;28;20851;-80
2023/08/06 08:32:33;;;;;;;113.37;3.27;;;16.80;58.30;;;;;;5034681;28;20453;-80
2023/08/06 08:34:59;;;;;;;113.50;3.30;;;17.40;61.90;;;;;;5034437;28;20927;-80
2023/08/06 08:37:24;;;;;;;113.70;3.53;;;16.90;58.40;;;;;;5038791;28;20229;-79
2023/08/06 08:39:50;;;;;;;113.20;3.57;;;17.30;61.80;;;;;;5037060;28;20711;-79
2023/08/06 08:42:16;;;;;;;113.50;3.43;;;17.60;58.40;;;;;;5037801;28;20214;-80
2023/08/06 08:44:44;;;;;;;113.30;3.10;;;17.40;59.90;;;;;;5037764;28;20250;-80
2023/08/06 08:47:11;;;;;;;113.67;3.50;;;17.60;55.60;;;;;;5036849;28;20490;-79
2023/08/06 08:49:38;;;;;;;113.77;3.67;;;18.10;54.70;;;;;;5036828;28;20436;-79
2023/08/06 08:52:10;;;;;;;113.40;3.23;;;17.40;55.50;;;;;;5037084;28;20415;-79
2023/08/06 08:54:37;;;;;;;113.87;3.83;;;17.10;60.50;;;;;;5038100;28;20409;-80
2023/08/06 08:57:03;;;;;;;113.70;3.50;;;17.30;58.90;;;;;;5036704;28;20413;-82
2023/08/06 08:59:29;;;;;;;113.37;3.50;;;17.70;56.30;;;;;;5031812;28;20917;-82
2023/08/06 09:01:56;;;;;;;113.43;3.53;;;18.30;55.20;;;;;;5035811;28;20550;-83
2023/08/06 09:04:22;;;;;;;113.33;3.30;;;17.30;55.40;;;;;;5035574;28;20188;-82
2023/08/06 09:06:50;;;;;;;113.97;3.87;;;17.70;54.50;;;;;;5036439;28;20416;-83
2023/08/06 09:09:28;;;;;;;113.40;3.30;;;17.50;56.20;;;;;;5035446;28;20951;-83
2023/08/06 09:11:59;;;;;;;113.23;3.10;;;18.00;52.20;;;;;;5025641;28;20430;-82
2023/08/06 09:14:25;;;;;;;112.80;2.90;;;17.80;52.30;;;;;;5040914;28;20919;-83
2023/08/06 09:16:51;;;;;;;113.17;3.13;;;17.90;52.00;;;;;;5035117;28;20420;-81
2023/08/06 09:19:17;;;;;;;113.47;3.47;;;18.10;52.70;;;;;;5023884;28;20215;-82
2023/08/06 09:21:48;;;;;;;113.43;3.40;;;18.20;50.70;;;;;;5034265;28;20473;-82
2023/08/06 09:24:14;;;;;;;113.37;3.40;;;17.70;55.70;;;;;;5037193;28;20408;-83
2023/08/06 09:26:42;;;;;;;113.03;3.10;;;17.60;57.60;;;;;;5034232;28;20884;-84
2023/08/06 09:29:11;;;;;;;113.67;3.63;;;18.10;55.00;;;;;;5037059;28;20830;-83
2023/08/06 09:31:53;;;;;;;113.40;3.67;;;17.90;55.90;;;;;;5036666;28;20409;-83
2023/08/06 09:34:22;;;;;;;113.63;3.77;;;17.60;53.60;;;;;;5037473;28;20441;-84
2023/08/06 09:36:54;;;;;;;113.63;3.60;;;17.60;57.20;;;;;;5036450;28;20405;-82
2023/08/06 09:39:21;;;;;;;112.70;2.97;;;18.00;54.50;;;;;;5037250;28;20827;-83
2023/08/06 09:41:48;;;;;;;113.57;3.80;;;18.00;55.40;;;;;;5037038;28;20480;-80
2023/08/06 09:44:18;;;;;;;112.70;2.93;;;18.60;52.60;;;;;;5038176;28;20417;-80
2023/08/06 09:46:51;;;;;;;112.93;3.40;;;19.30;50.30;;;;;;5038667;28;20442;-80
2023/08/06 09:49:19;;;;;;;113.00;3.40;;;19.60;46.90;;;;;;5039582;28;20430;-79
2023/08/06 09:51:46;;;;;;;112.47;2.90;;;19.40;50.60;;;;;;5044964;28;20421;-80
2023/08/06 09:54:14;;;;;;;112.60;3.40;;;18.50;54.20;;;;;;5046002;28;20450;-80
2023/08/06 09:56:40;;;;;;;112.37;3.20;;;18.70;54.50;;;;;;5040678;28;20424;-83
2023/08/06 09:59:06;;;;;;;112.70;3.13;;;18.70;52.60;;;;;;5040886;28;20441;-82
2023/08/06 10:01:36;;;;;;;112.77;3.27;;;18.10;55.40;;;;;;5038462;28;20409;-82
2023/08/06 10:04:04;;;;;;;112.47;3.10;;;18.10;57.40;;;;;;5038194;28;20412;-83
2023/08/06 10:06:29;;;;;;;112.77;3.43;;;18.80;54.30;;;;;;5042839;28;20417;-81
2023/08/06 10:08:55;;;;;;;112.47;3.07;;;19.20;51.90;;;;;;5042830;28;20973;-80
2023/08/06 10:11:24;;;;;;;112.70;3.30;;;18.40;56.90;;;;;;5037375;28;20181;-80
2023/08/06 10:13:57;;;;;;;112.40;3.20;;;18.40;60.50;;;;;;5036538;28;20429;-80
2023/08/06 10:16:24;;;;;;;112.50;3.17;;;18.00;60.80;;;;;;5035745;28;20847;-81
2023/08/06 10:18:50;;;;;;;112.30;3.30;;;17.80;65.40;;;;;;5034732;28;20513;-80
2023/08/06 10:21:16;;;;;;;112.70;3.50;;;17.60;60.60;;;;;;5035742;28;20936;-81
2023/08/06 10:23:42;;;;;;;112.80;3.43;;;17.70;63.60;;;;;;5036338;28;20517;-80
2023/08/06 10:26:07;;;;;;;112.60;3.23;;;17.80;61.00;;;;;;5035617;28;20172;-80
2023/08/06 10:28:38;;;;;;;112.73;3.17;;;18.10;57.90;;;;;;5035787;28;20200;-80
2023/08/06 10:31:06;;;;;;;112.57;3.13;;;18.00;58.30;;;;;;5036370;28;20172;-80
2023/08/06 10:33:46;;;;;;;113.00;3.43;;;18.10;57.20;;;;;;5036304;28;20457;-81
2023/08/06 10:36:13;;;;;;;112.70;3.17;;;18.20;58.70;;;;;;5034290;28;20826;-81
2023/08/06 10:38:49;;;;;;;112.73;3.17;;;18.30;58.30;;;;;;5034432;28;20446;-81
2023/08/06 10:41:16;;;;;;;113.17;3.73;;;18.70;56.20;;;;;;5034845;28;20470;-81
2023/08/06 10:43:44;;;;;;;112.47;2.80;;;17.80;56.70;;;;;;5035529;28;21156;-81
2023/08/06 10:46:20;;;;;;;112.77;3.27;;;17.50;62.70;;;;;;5035009;28;20490;-81
2023/08/06 10:48:46;;;;;;;113.07;3.57;;;17.80;60.90;;;;;;5033890;28;20466;-81
2023/08/06 10:51:13;;;;;;;112.90;3.20;;;18.20;58.80;;;;;;5034220;28;20407;-82
2023/08/06 10:53:43;;;;;;;112.90;3.27;;;18.20;56.20;;;;;;5033918;28;20562;-83
2023/08/06 10:56:19;;;;;;;112.67;3.10;;;18.40;54.20;;;;;;5034194;28;20422;-82
2023/08/06 10:58:46;;;;;;;112.90;3.40;;;18.30;57.10;;;;;;5034330;28;20866;-82
2023/08/06 11:01:12;;;;;;;112.67;3.00;;;18.60;59.40;;;;;;5034545;28;20420;-82
2023/08/06 11:03:38;;;;;;;113.00;3.67;;;18.50;56.50;;;;;;5033652;28;20479;-82
2023/08/06 11:06:06;;;;;;;112.63;3.03;;;18.80;56.40;;;;;;5034369;28;20176;-82
2023/08/06 11:08:36;;;;;;;112.87;3.23;;;18.50;59.60;;;;;;5033203;28;20432;-81
2023/08/06 11:11:11;;;;;;;112.60;3.10;;;19.20;56.50;;;;;;5034175;28;20420;-80
2023/08/06 11:13:38;;;;;;;113.20;3.60;;;18.70;55.00;;;;;;5034199;28;20407;-81
2023/08/06 11:16:04;;;;;;;112.90;3.20;;;18.60;54.70;;;;;;5035154;28;20411;-81
2023/08/06 11:18:30;;;;;;;112.73;3.30;;;18.50;56.50;;;;;;5033721;28;20471;-81
2023/08/06 11:20:58;;;;;;;112.70;3.00;;;18.40;56.90;;;;;;5034183;28;20904;-82
2023/08/06 11:23:29;;;;;;;113.07;3.37;;;18.00;56.90;;;;;;5035599;28;20196;-81
2023/08/06 11:25:56;;;;;;;113.17;3.60;;;17.50;62.90;;;;;;5035655;28;20404;-81
2023/08/06 11:28:22;;;;;;;113.00;3.40;;;17.80;62.20;;;;;;5036150;28;20815;-81
2023/08/06 11:30:48;;;;;;;113.27;3.53;;;17.60;62.60;;;;;;5036837;28;20413;-81
2023/08/06 11:33:14;;;;;;;113.03;3.40;;;17.50;64.50;;;;;;5036096;28;20417;-80
2023/08/06 11:35:40;;;;;;;112.80;3.10;;;17.00;74.10;;;;;;5035511;28;20425;-81
2023/08/06 11:38:06;;;;;;;113.20;3.50;;;17.50;67.10;;;;;;5036282;28;20181;-81
2023/08/06 11:40:35;;;;;;;113.27;3.47;;;17.50;69.10;;;;;;5035921;28;20183;-80
2023/08/06 11:43:01;;;;;;;112.97;3.00;;;17.70;73.70;;;;;;5036084;28;20819;-81
2023/08/06 11:45:27;;;;;;;113.00;3.27;;;17.20;73.30;;;;;;5035249;28;20412;-81
2023/08/06 11:47:53;;;;;;;113.10;3.10;;;16.60;80.10;;;;;;5036186;28;20410;-80
2023/08/06 11:50:28;;;;;;;113.50;3.37;;;16.80;80.70;;;;;;5035284;28;20192;-80
2023/08/06 11:53:00;;;;;;;113.60;3.30;;;16.20;84.70;;;;;;5035727;28;20411;-80
2023/08/06 11:55:26;;;;;;;113.47;3.33;;;16.00;83.90;;;;;;5035298;28;20458;-80
2023/08/06 11:57:52;;;;;;;113.23;3.33;;;15.90;86.50;;;;;;5036161;28;20447;-80
2023/08/06 12:00:19;;;;;;;113.67;3.47;;;16.00;86.10;;;;;;5035283;28;20461;-80
2023/08/06 12:02:46;;;;;;;113.37;3.30;;;16.70;85.80;;;;;;5039015;28;20455;-80
2023/08/06 12:05:25;;;;;;;113.70;3.30;;;16.70;79.30;;;;;;5039529;28;20403;-81
2023/08/06 12:07:57;;;;;;;113.40;3.10;;;16.60;79.80;;;;;;5039732;28;20415;-81
2023/08/06 12:10:24;;;;;;;113.40;3.10;;;17.00;76.80;;;;;;5040087;28;20415;-81
2023/08/06 12:12:50;;;;;;;113.53;3.07;;;17.20;71.50;;;;;;5040170;28;20462;-81
2023/08/06 12:15:16;;;;;;;113.60;3.20;;;17.20;70.90;;;;;;5037807;28;20442;-82
2023/08/06 12:17:42;;;;;;;113.57;3.13;;;17.20;70.60;;;;;;5039838;28;20237;-81
2023/08/06 12:20:09;;;;;;;113.50;3.10;;;17.10;67.30;;;;;;5039098;28;20454;-82
2023/08/06 12:22:35;;;;;;;113.77;3.30;;;16.80;65.30;;;;;;5038246;28;20459;-80
2023/08/06 12:25:12;;;;;;;112.77;3.03;;;16.20;77.00;;;;;;5037018;28;20469;-82
2023/08/06 12:27:39;;;;;;;113.17;3.40;;;15.90;73.60;;;;;;5038719;28;20400;-81